Terminal Aerodrome Forecast
Issued by NWS Lake Charles, LA

Home | Current Version | Previous Version | Text Only | Print | Product List | Glossary On
Versions: 1 2 3 4 5 6 7 8 9 10 11 12 13
000
FTUS44 KLCH 211700
TAFBPT
TAF
KBPT 211739Z 2118/2218 19010KT P6SM SCT040 SCT220
     FM212300 18004KT P6SM SCT220
     FM220800 18003KT P6SM BKN040 BKN220
     FM221400 18005KT P6SM SCT035 SCT220=

USA.gov is the U.S. government's official web portal to all federal, state and local government web resources and services.